Toone, TN

12:30 AM CDT en Septiembre 17, 2014 (GMT -0500)
McKellar-Sipes Regional | Change Station
CLOSE
Current Station
Aeropuerto
Location: Jackson,
Altura: 433 ft
Estaciones meteorológicas cercanas

Alt 433 ft 35.59 °N, 88.92 °W | Updated 37 minutes ago

Parcialmente nublado
Parcialmente nublado
62 ° F
Sensación térmica 62 ° F
N
0
Viento Variable Viento desde Norte

Hoy
Alta -- | Baja -- ° F
--% Posibilidad de precipitaciones
Ayer
Alta -- | Baja -- ° F
Precip. -- pul
6:40 AM 6:59 PM
Cuarto menguante, 39% visible
Presión 30.07 pul
Visibilidad 10.0 Millas
Nubes Muy nublado 4500 ft
Punto de rocío 60 ° F
Humedad 93%
Precipitaciones 0.00 pul
Espesor de la nieve No disponible.
UV 0 de una escala de 12
Polen 8.10 de una escala de 12
Calidad del aire No disponible.
Flu Activity No disponible.
METAR KMKL 170453Z AUTO 00000KT 10SM BKN045 17/16 A3008 RMK AO2 SLP182 T01670156 $

More Conditions Fewer Conditions

Presión 30.07 pul
Visibilidad 10.0 Millas
Nubes Muy nublado 4500 ft
Punto de rocío 60 ° F
Humedad 93%
Precipitaciones 0.00 pul
Espesor de la nieve No disponible.
UV 0 de una escala de 12
Polen 8.10 de una escala de 12
Calidad del aire No disponible.
Flu Activity No disponible.
METAR KMKL 170453Z AUTO 00000KT 10SM BKN045 17/16 A3008 RMK AO2 SLP182 T01670156 $

More Conditions Fewer Conditions

10-Day Weather Forecast

Almanac

Astronomía

Sep. 17, 2014 Salida Puesta
Hora real 6:40 AM CDT 6:59 PM CDT
Crepúsculo civil 6:14 AM CDT 7:25 PM CDT
Crepúsculo náutico 5:44 AM CDT 7:55 PM CDT
Crepúsculo astronómico 5:14 AM CDT 8:25 PM CDT
Luna 12:48 AM CDT 3:00 PM CDT
Horas de luz 13h 10m
Horas de luz
12h 19m
Tomorrow will be 2m 13s shorter.
Cuarto menguante, 39% of the Moon is Illuminated
Hoy
Cuarto menguante
Sep 24
Nueva
Oct 1
Cuarto creciente
Oct 8
Luna llena
Oct 15
Cuarto menguante

Extremos de hoy

Máximos del estado Bajos del estado

Community

WunderPhotos

Upload Photos

1,753,968 ¡fotos cargadas!

Nearby

Grosos de nieve

Estación Profundido Altura
No tenemos constancia de nieve nueva.

Actividad de terremotos

Ciudad Distance Mag. Tiempo y dato
No hay informes recientes de la actividad sísmica.
Magnitud mínima muestra es 2,5.

Temperaturas de aguas costeras

Lugar Temperatura
Sin partes meteorológicos de las estaciones

Estaciones meteorológicas cercanas